Time;durP1;ratioP1;P1;durP2;ratioP2;P2;SDS_P1;SDS_P2;PMS_P1;PMS_P2;Temp;Humidity;BMP_temperature;BMP_pressure;BME280_temperature;BME280_humidity;BME280_pressure;Samples;Min_cycle;Max_cycle;Signal;HPM_P1;HPM_P2
2021/10/28 00:13:26;;;;;;;14.98;9.50;;;11.00;95.50;;;;;;5073709;28;20161;-77
2021/10/28 00:16:07;;;;;;;11.63;8.33;;;11.10;95.60;;;;;;5072189;28;20131;-77
2021/10/28 00:18:41;;;;;;;13.37;9.10;;;11.00;95.60;;;;;;5056923;28;20066;-76
2021/10/28 00:21:08;;;;;;;13.82;8.55;;;11.00;95.70;;;;;;5073500;28;20052;-77
2021/10/28 00:23:41;;;;;;;11.63;8.40;;;11.00;95.70;;;;;;5055376;28;20032;-77
2021/10/28 00:26:08;;;;;;;14.07;8.68;;;10.90;95.70;;;;;;5073723;28;20034;-77
2021/10/28 00:28:35;;;;;;;15.30;8.87;;;11.00;95.70;;;;;;5072262;28;20024;-76
2021/10/28 00:31:02;;;;;;;16.43;9.20;;;10.90;95.70;;;;;;5055464;28;20025;-77
2021/10/28 00:33:29;;;;;;;13.93;8.83;;;10.90;95.70;;;;;;5055937;28;20021;-77
2021/10/28 00:35:55;;;;;;;15.03;8.47;;;10.90;95.80;;;;;;5055540;28;20025;-77
2021/10/28 00:38:21;;;;;;;14.87;9.37;;;10.90;95.80;;;;;;5038941;28;20047;-77
2021/10/28 00:40:47;;;;;;;15.30;8.77;;;10.80;95.80;;;;;;5073338;28;20098;-77
2021/10/28 00:43:12;;;;;;;15.93;8.93;;;10.80;95.80;;;;;;5073502;28;20472;-76
2021/10/28 00:45:40;;;;;;;13.33;8.77;;;10.80;95.90;;;;;;5073169;28;20029;-77
2021/10/28 00:48:07;;;;;;;14.53;8.17;;;10.80;95.90;;;;;;5073498;28;20020;-76
2021/10/28 00:50:34;;;;;;;14.33;8.53;;;10.80;95.90;;;;;;5072492;28;20029;-76
2021/10/28 00:53:03;;;;;;;18.73;9.13;;;10.80;95.90;;;;;;5072245;28;20017;-76
2021/10/28 00:55:29;;;;;;;17.70;8.70;;;10.80;95.90;;;;;;5055879;28;20052;-77
2021/10/28 00:57:55;;;;;;;14.83;8.27;;;10.70;95.90;;;;;;5038649;28;20047;-77
2021/10/28 01:00:21;;;;;;;13.33;8.60;;;10.80;96.00;;;;;;5039116;28;20098;-77
2021/10/28 01:02:47;;;;;;;12.87;8.03;;;10.70;95.90;;;;;;5073244;28;20033;-76
2021/10/28 01:05:13;;;;;;;12.03;7.37;;;10.70;95.90;;;;;;5072368;28;20036;-76
2021/10/28 01:07:39;;;;;;;16.67;8.27;;;10.70;96.00;;;;;;5072028;28;20563;-77
2021/10/28 01:10:05;;;;;;;13.17;7.90;;;10.70;96.00;;;;;;5038646;28;20119;-76
2021/10/28 01:12:30;;;;;;;10.50;6.97;;;10.70;96.00;;;;;;5073072;28;20033;-76
2021/10/28 01:14:58;;;;;;;14.20;7.80;;;10.70;96.00;;;;;;5055373;28;20093;-77
2021/10/28 01:17:24;;;;;;;14.63;8.33;;;10.70;96.00;;;;;;5055564;28;20036;-76
2021/10/28 01:19:52;;;;;;;14.43;7.73;;;10.60;96.00;;;;;;5072124;28;20115;-77
2021/10/28 01:22:18;;;;;;;14.80;8.80;;;10.60;96.00;;;;;;5073455;28;20024;-76
2021/10/28 01:24:43;;;;;;;14.00;8.20;;;10.60;96.00;;;;;;5073037;28;20426;-77
2021/10/28 01:27:09;;;;;;;11.63;7.53;;;10.70;96.10;;;;;;5071833;28;20074;-77
2021/10/28 01:29:38;;;;;;;13.47;8.03;;;10.60;96.10;;;;;;5072755;28;20131;-77
2021/10/28 01:32:05;;;;;;;14.97;8.60;;;10.60;96.10;;;;;;5077095;28;20078;-76
2021/10/28 01:34:31;;;;;;;11.73;7.80;;;10.60;96.10;;;;;;5075500;28;20116;-75
2021/10/28 01:36:59;;;;;;;12.97;8.13;;;10.60;96.20;;;;;;5076971;28;20108;-76
2021/10/28 01:39:25;;;;;;;13.07;7.87;;;10.50;96.10;;;;;;5075661;28;20074;-77
2021/10/28 01:41:54;;;;;;;13.33;8.00;;;10.50;96.10;;;;;;5076647;28;20028;-76
2021/10/28 01:44:21;;;;;;;14.20;8.03;;;10.50;96.10;;;;;;5076538;28;20021;-77
2021/10/28 01:46:47;;;;;;;14.70;8.50;;;10.50;96.20;;;;;;5076269;28;20526;-79
2021/10/28 01:49:39;;;;;;;14.97;8.13;;;10.50;96.20;;;;;;5076445;28;20224;-79
2021/10/28 01:52:05;;;;;;;14.90;8.00;;;10.50;96.50;;;;;;5055537;28;20033;-78
2021/10/28 01:54:31;;;;;;;11.47;7.87;;;10.40;96.20;;;;;;5058207;28;20025;-79
2021/10/28 01:56:57;;;;;;;16.40;7.73;;;10.40;96.20;;;;;;5055146;28;20025;-79
2021/10/28 01:59:22;;;;;;;12.83;7.40;;;10.40;96.20;;;;;;5056024;28;20021;-81
2021/10/28 02:01:48;;;;;;;13.37;7.77;;;10.40;96.20;;;;;;5038118;28;20036;-79
2021/10/28 02:04:14;;;;;;;13.60;7.97;;;10.40;96.20;;;;;;5054831;28;20053;-76
2021/10/28 02:06:40;;;;;;;14.30;7.87;;;10.50;96.30;;;;;;5054940;28;20043;-77
2021/10/28 02:09:06;;;;;;;15.30;7.83;;;10.30;96.50;;;;;;5054626;28;20112;-76
2021/10/28 02:11:31;;;;;;;14.50;7.90;;;10.40;96.30;;;;;;5055180;28;20105;-76
2021/10/28 02:14:00;;;;;;;17.50;7.83;;;10.30;96.30;;;;;;5054644;28;20381;-77
2021/10/28 02:16:33;;;;;;;14.07;8.13;;;10.20;96.20;;;;;;5055833;28;20029;-77
2021/10/28 02:19:00;;;;;;;15.63;8.32;;;10.30;96.30;;;;;;5054185;28;20412;-78
2021/10/28 02:21:27;;;;;;;14.03;7.73;;;10.30;96.30;;;;;;5055879;28;20024;-77
2021/10/28 02:23:54;;;;;;;18.40;8.27;;;10.30;96.30;;;;;;5038037;28;20048;-77
2021/10/28 02:26:21;;;;;;;14.47;7.70;;;10.30;96.30;;;;;;5063618;28;20021;-77
2021/10/28 02:28:48;;;;;;;11.47;7.70;;;10.20;96.20;;;;;;5073944;28;20027;-79
2021/10/28 02:31:13;;;;;;;14.43;8.17;;;10.20;96.30;;;;;;5040591;28;20036;-78
2021/10/28 02:33:39;;;;;;;14.93;7.97;;;10.20;96.30;;;;;;5057384;28;20405;-78
2021/10/28 02:36:05;;;;;;;12.07;7.77;;;10.10;96.30;;;;;;5057355;28;20024;-79
2021/10/28 02:38:30;;;;;;;12.93;8.10;;;10.20;96.30;;;;;;5074116;28;20480;-78
2021/10/28 02:40:56;;;;;;;15.37;8.47;;;10.20;96.30;;;;;;5040625;28;20032;-78
2021/10/28 02:43:22;;;;;;;11.67;7.33;;;10.10;96.30;;;;;;5057383;28;20040;-77
2021/10/28 02:45:47;;;;;;;12.03;7.60;;;10.20;96.30;;;;;;5075138;28;20032;-77
2021/10/28 02:48:13;;;;;;;14.53;8.47;;;10.10;96.30;;;;;;5057113;28;20027;-76
2021/10/28 02:50:40;;;;;;;14.10;8.77;;;10.10;96.30;;;;;;5057446;28;20387;-76
2021/10/28 02:53:05;;;;;;;16.83;9.07;;;10.10;96.30;;;;;;5073765;28;20021;-77
2021/10/28 02:55:31;;;;;;;15.10;8.67;;;10.00;96.30;;;;;;5057046;28;20035;-77
2021/10/28 02:57:57;;;;;;;13.90;8.77;;;10.00;96.30;;;;;;5057057;28;20381;-77
2021/10/28 03:00:22;;;;;;;15.70;9.13;;;10.10;96.40;;;;;;5073559;28;20391;-79
2021/10/28 03:02:48;;;;;;;11.73;7.90;;;10.00;96.30;;;;;;5073623;28;20055;-79
2021/10/28 03:05:13;;;;;;;15.13;8.87;;;10.00;96.40;;;;;;5073544;28;20033;-77
2021/10/28 03:07:39;;;;;;;15.13;10.10;;;10.00;96.40;;;;;;5073302;28;20024;-77
2021/10/28 03:10:07;;;;;;;15.80;9.57;;;10.00;96.40;;;;;;5073341;28;20439;-79
2021/10/28 03:12:35;;;;;;;14.40;9.87;;;10.00;96.40;;;;;;5057012;28;20021;-79
2021/10/28 03:15:03;;;;;;;15.67;9.47;;;10.00;96.40;;;;;;5073168;28;20020;-79
2021/10/28 03:17:41;;;;;;;15.90;9.17;;;10.00;96.40;;;;;;5057094;28;20083;-79
2021/10/28 03:28:14;;;;;;;;;;;9.90;96.30;;;;;;5039732;28;20087;-79
2021/10/28 03:30:40;;;;;;;13.60;7.87;;;9.90;96.20;;;;;;5054213;28;20428;-79
2021/10/28 03:33:08;;;;;;;13.50;8.00;;;9.90;96.20;;;;;;5052968;28;20060;-79
2021/10/28 03:35:34;;;;;;;13.27;8.03;;;9.80;96.20;;;;;;5053030;28;20036;-79
2021/10/28 03:38:09;;;;;;;15.17;8.50;;;9.80;96.20;;;;;;5054207;28;20033;-79
2021/10/28 04:01:21;;;;;;;20.97;10.53;;;9.50;96.20;;;;;;5053729;28;20090;-79
2021/10/28 04:08:58;;;;;;;15.73;10.10;;;9.40;96.20;;;;;;5052532;28;20373;-79
2021/10/28 04:30:18;;;;;;;19.83;10.20;;;9.20;96.20;;;;;;5055146;28;20057;-79
2021/10/28 04:32:44;;;;;;;17.63;11.27;;;9.10;96.20;;;;;;5064488;28;20032;-79
2021/10/28 04:35:11;;;;;;;17.93;11.80;;;9.10;96.20;;;;;;5072112;28;20032;-77
2021/10/28 04:37:38;;;;;;;17.70;10.47;;;9.10;96.10;;;;;;5073105;28;20361;-77
2021/10/28 04:40:05;;;;;;;17.97;11.57;;;9.00;96.10;;;;;;5071961;28;20450;-77
2021/10/28 04:42:31;;;;;;;16.33;11.40;;;9.00;96.20;;;;;;5055129;28;20032;-77
2021/10/28 04:44:56;;;;;;;18.67;11.60;;;9.00;96.20;;;;;;5072971;28;20116;-77
2021/10/28 04:47:22;;;;;;;17.17;10.97;;;9.00;96.20;;;;;;5054971;28;20489;-79
2021/10/28 04:49:48;;;;;;;21.37;11.40;;;8.90;96.30;;;;;;5069061;28;20060;-78
2021/10/28 04:52:13;;;;;;;20.63;11.27;;;8.90;96.30;;;;;;5035012;28;20032;-77
2021/10/28 04:54:39;;;;;;;18.17;11.60;;;8.90;96.60;;;;;;5051921;28;20037;-80
2021/10/28 04:57:05;;;;;;;19.20;11.53;;;8.80;96.30;;;;;;5034898;28;20029;-77
2021/10/28 04:59:32;;;;;;;19.60;10.80;;;8.90;96.40;;;;;;5052852;28;20029;-78
2021/10/28 05:01:57;;;;;;;22.27;11.90;;;8.90;96.40;;;;;;5052925;28;20496;-77
2021/10/28 05:04:24;;;;;;;18.80;11.67;;;8.80;96.40;;;;;;5052181;28;20029;-77
2021/10/28 05:06:50;;;;;;;17.83;10.43;;;8.90;96.40;;;;;;5061084;28;20536;-79
2021/10/28 05:09:23;;;;;;;18.37;11.10;;;8.80;96.40;;;;;;5063603;28;20112;-79
2021/10/28 05:11:49;;;;;;;18.65;11.15;;;8.70;96.40;;;;;;5060467;28;20060;-80
2021/10/28 05:14:15;;;;;;;23.87;12.03;;;8.80;96.50;;;;;;5054233;28;20106;-80
2021/10/28 05:16:41;;;;;;;22.00;13.13;;;8.90;96.50;;;;;;5063847;28;20021;-78
2021/10/28 05:19:07;;;;;;;20.13;11.83;;;8.80;96.50;;;;;;5037458;28;20053;-80
2021/10/28 05:21:32;;;;;;;20.27;11.20;;;8.80;96.40;;;;;;5063657;28;20044;-80
2021/10/28 05:23:58;;;;;;;21.23;11.57;;;8.90;96.40;;;;;;5048201;28;20543;-77
2021/10/28 05:26:24;;;;;;;20.77;12.17;;;8.70;96.40;;;;;;5038803;28;20504;-80
2021/10/28 05:28:50;;;;;;;20.73;11.97;;;8.80;96.50;;;;;;5056486;28;20112;-76
2021/10/28 05:31:16;;;;;;;20.20;12.63;;;8.90;96.50;;;;;;5038714;28;20025;-77
2021/10/28 05:33:42;;;;;;;22.57;12.83;;;8.80;96.50;;;;;;5068605;28;20135;-77
2021/10/28 05:36:08;;;;;;;20.93;11.67;;;8.70;96.40;;;;;;5076240;28;20415;-79
2021/10/28 05:38:33;;;;;;;22.97;13.17;;;8.80;96.50;;;;;;5071669;28;20036;-79
2021/10/28 05:40:59;;;;;;;20.67;12.30;;;8.70;96.40;;;;;;5051628;28;20040;-79
2021/10/28 05:43:25;;;;;;;21.80;12.70;;;8.90;96.60;;;;;;5075094;28;20036;-77
2021/10/28 05:45:50;;;;;;;26.73;13.97;;;8.70;96.50;;;;;;5075270;28;20031;-76
2021/10/28 05:48:16;;;;;;;24.20;12.10;;;8.80;96.50;;;;;;5057126;28;20106;-77
2021/10/28 05:50:44;;;;;;;26.50;13.03;;;8.70;96.50;;;;;;5074301;28;20021;-77
2021/10/28 05:53:10;;;;;;;26.70;13.67;;;8.80;96.50;;;;;;5075575;28;20017;-78
2021/10/28 05:55:36;;;;;;;26.00;13.80;;;8.70;96.50;;;;;;5040175;28;20029;-78
2021/10/28 05:58:02;;;;;;;23.03;12.30;;;8.70;96.50;;;;;;5074062;28;20035;-78
2021/10/28 06:00:28;;;;;;;22.10;12.77;;;8.60;96.50;;;;;;5057663;28;20048;-78
2021/10/28 06:02:53;;;;;;;24.57;13.00;;;8.60;96.60;;;;;;5074390;28;20075;-77
2021/10/28 06:05:20;;;;;;;25.70;14.27;;;8.60;96.60;;;;;;5071189;28;20056;-80
2021/10/28 06:07:47;;;;;;;22.40;12.40;;;8.60;96.60;;;;;;5057435;28;20032;-79
2021/10/28 06:10:16;;;;;;;23.23;13.87;;;8.60;96.60;;;;;;5073666;28;20012;-77
2021/10/28 06:12:48;;;;;;;20.73;11.57;;;8.50;96.60;;;;;;5073898;28;20019;-79
2021/10/28 06:15:15;;;;;;;23.93;13.60;;;8.50;96.60;;;;;;5062574;28;20063;-80
2021/10/28 06:17:57;;;;;;;25.43;12.03;;;8.50;96.70;;;;;;5056325;28;20090;-79
2021/10/28 06:20:23;;;;;;;22.47;12.17;;;8.50;96.70;;;;;;5059644;28;20504;-80
2021/10/28 06:22:50;;;;;;;28.03;13.80;;;8.60;96.70;;;;;;5059205;28;20037;-79
2021/10/28 06:25:19;;;;;;;25.23;13.47;;;8.50;96.70;;;;;;5047091;28;20029;-79
2021/10/28 06:27:45;;;;;;;23.27;12.90;;;8.50;96.70;;;;;;5067270;28;20165;-79
2021/10/28 06:30:12;;;;;;;23.30;13.33;;;8.40;96.70;;;;;;5071966;28;20564;-79
2021/10/28 06:32:52;;;;;;;22.03;12.20;;;8.40;96.70;;;;;;5057148;28;20388;-80
2021/10/28 06:35:19;;;;;;;25.83;14.00;;;8.40;96.70;;;;;;5070117;28;20017;-79
2021/10/28 06:37:47;;;;;;;23.23;13.67;;;8.40;96.80;;;;;;5074271;28;20036;-79
2021/10/28 06:40:14;;;;;;;23.57;13.33;;;8.40;96.80;;;;;;5074047;28;20039;-79
2021/10/28 06:42:40;;;;;;;22.40;12.37;;;8.40;96.80;;;;;;5073902;28;20039;-79
2021/10/28 06:45:06;;;;;;;27.47;13.40;;;8.40;96.80;;;;;;5074080;28;20055;-78
2021/10/28 06:47:32;;;;;;;24.83;12.73;;;8.40;96.90;;;;;;5073965;28;20036;-77
2021/10/28 06:50:05;;;;;;;23.50;12.23;;;8.30;96.90;;;;;;5040895;28;20044;-78
2021/10/28 06:52:45;;;;;;;22.20;12.97;;;8.40;97.00;;;;;;5043445;28;20050;-78
2021/10/28 06:55:11;;;;;;;25.37;11.90;;;8.50;97.00;;;;;;5075318;28;20029;-77
2021/10/28 06:57:59;;;;;;;25.07;13.03;;;8.30;97.00;;;;;;5040544;28;20029;-77
2021/10/28 07:03:07;;;;;;;;;;;8.40;97.10;;;;;;5074506;28;20392;-77
2021/10/28 07:05:32;;;;;;;23.53;12.13;;;8.50;97.10;;;;;;5074964;28;19909;-77
2021/10/28 07:07:58;;;;;;;25.13;12.77;;;8.50;97.10;;;;;;5073584;28;20039;-77
2021/10/28 07:10:25;;;;;;;24.03;12.37;;;8.40;97.10;;;;;;5073460;28;20029;-76
2021/10/28 07:15:31;;;;;;;24.53;12.50;;;8.50;97.50;;;;;;5075123;28;20040;-77
2021/10/28 07:18:15;;;;;;;26.20;13.17;;;8.60;97.20;;;;;;5073498;28;20029;-77
2021/10/28 07:31:59;;;;;;;23.27;13.37;;;8.70;97.40;;;;;;5074552;28;20536;-78
2021/10/28 08:18:47;;;;;;;21.53;12.47;;;9.70;97.60;;;;;;5053750;28;20120;-77
2021/10/28 08:21:11;;;;;;;18.23;11.10;;;9.70;97.60;;;;;;5050540;28;20459;-77
2021/10/28 08:24:32;;;;;;;22.67;11.53;;;9.80;97.60;;;;;;5038556;28;20151;-77
2021/10/28 08:29:23;;;;;;;21.83;12.38;;;9.90;97.60;;;;;;5038590;28;20515;-77
2021/10/28 08:31:52;;;;;;;24.67;11.80;;;10.00;97.60;;;;;;5053851;28;20505;-78
2021/10/28 08:34:24;;;;;;;18.33;11.00;;;10.10;97.60;;;;;;5051890;28;20466;-79
2021/10/28 08:36:52;;;;;;;21.63;11.93;;;10.10;97.60;;;;;;5051945;28;20082;-79
2021/10/28 08:39:21;;;;;;;20.27;11.80;;;10.20;97.70;;;;;;5023551;28;20044;-77
2021/10/28 08:41:50;;;;;;;20.43;12.07;;;10.30;97.70;;;;;;5072914;28;20028;-78
2021/10/28 08:44:20;;;;;;;22.10;12.47;;;10.30;97.60;;;;;;5072314;28;20472;-78
2021/10/28 08:46:52;;;;;;;21.03;12.43;;;10.40;97.60;;;;;;5073898;28;20025;-79
2021/10/28 08:49:30;;;;;;;19.97;10.77;;;10.50;97.60;;;;;;5073992;28;20108;-80
2021/10/28 08:58:07;;;;;;;25.25;12.27;;;10.70;97.60;;;;;;5073985;28;20098;-78
2021/10/28 09:24:15;;;;;;;20.90;11.43;;;11.40;97.20;;;;;;5072142;28;20554;-78
2021/10/28 09:26:53;;;;;;;17.45;10.85;;;11.50;97.20;;;;;;5073372;28;20024;-79
2021/10/28 09:32:04;;;;;;;16.42;9.98;;;12.00;97.30;;;;;;5073308;28;20029;-78
2021/10/28 09:45:39;;;;;;;10.38;5.05;;;14.90;99.10;;;;;;5075034;28;19947;-80
2021/10/28 09:48:32;;;;;;;7.32;4.43;;;15.80;99.60;;;;;;5071563;28;20033;-78
2021/10/28 09:51:00;;;;;;;7.57;4.82;;;16.80;98.80;;;;;;5073297;28;20074;-77
2021/10/28 09:53:44;;;;;;;9.23;4.78;;;17.80;98.60;;;;;;5076727;28;20067;-77
2021/10/28 09:59:03;;;;;;;8.23;4.03;;;19.60;96.80;;;;;;5078095;28;19915;-78
2021/10/28 10:01:43;;;;;;;7.28;4.05;;;20.50;95.10;;;;;;5076273;28;20407;-77
2021/10/28 10:04:09;;;;;;;6.28;3.85;;;21.20;92.90;;;;;;5075129;28;20124;-78
2021/10/28 10:06:39;;;;;;;6.72;4.05;;;22.00;89.80;;;;;;5058268;28;20033;-77
2021/10/28 10:09:05;;;;;;;6.88;4.30;;;22.50;85.40;;;;;;5042809;28;20033;-77
2021/10/28 10:11:32;;;;;;;5.60;4.00;;;23.00;81.50;;;;;;5058257;28;20040;-78
2021/10/28 10:13:58;;;;;;;6.15;3.88;;;23.50;77.80;;;;;;5076651;28;20017;-77
2021/10/28 10:16:24;;;;;;;7.05;4.03;;;23.90;75.70;;;;;;5074884;28;20372;-78
2021/10/28 10:18:51;;;;;;;5.97;3.90;;;24.40;73.00;;;;;;5074460;28;20041;-78
2021/10/28 10:21:37;;;;;;;7.28;4.15;;;24.80;68.80;;;;;;5074770;28;20020;-81
2021/10/28 10:27:34;;;;;;;6.20;3.78;;;25.60;64.00;;;;;;5076042;28;20036;-77
2021/10/28 12:22:55;;;;;;;7.20;5.13;;;31.50;40.30;;;;;;5074199;28;20510;-84
2021/10/28 12:50:22;;;;;;;9.05;5.55;;;31.10;39.10;;;;;;5074078;28;20441;-79
2021/10/28 14:23:03;;;;;;;5.95;2.65;;;30.20;37.80;;;;;;5074192;28;20116;-76
2021/10/28 15:31:35;;;;;;;7.53;3.58;;;22.50;48.90;;;;;;5057810;28;20032;-77
2021/10/28 16:22:44;;;;;;;6.18;3.17;;;18.80;58.30;;;;;;5050200;28;20191;-75
2021/10/28 16:25:10;;;;;;;5.93;2.80;;;18.50;58.40;;;;;;5040768;28;20033;-75
2021/10/28 16:27:36;;;;;;;6.05;2.90;;;18.50;59.00;;;;;;5056439;28;20087;-76
2021/10/28 16:30:04;;;;;;;6.45;2.63;;;18.30;59.20;;;;;;5073200;28;20028;-77
2021/10/28 16:32:31;;;;;;;8.88;3.38;;;18.20;59.90;;;;;;5071367;28;20104;-77
2021/10/28 16:34:56;;;;;;;5.38;3.00;;;18.20;60.10;;;;;;5073047;28;20021;-77
2021/10/28 16:37:28;;;;;;;7.50;3.65;;;18.10;60.20;;;;;;5071563;28;20035;-77
2021/10/28 16:39:53;;;;;;;6.50;3.45;;;18.00;60.70;;;;;;5073180;28;20519;-76
2021/10/28 16:42:20;;;;;;;6.63;3.33;;;17.90;60.80;;;;;;5055778;28;20032;-76
2021/10/28 16:44:46;;;;;;;6.97;4.07;;;17.80;61.30;;;;;;5072159;28;20483;-76
2021/10/28 16:47:15;;;;;;;6.70;3.78;;;17.70;61.60;;;;;;5055205;28;20024;-76
2021/10/28 16:49:41;;;;;;;8.63;4.57;;;17.60;62.20;;;;;;5072060;28;20496;-77
2021/10/28 16:52:07;;;;;;;9.20;4.47;;;17.50;62.60;;;;;;5072257;28;20029;-77
2021/10/28 16:54:33;;;;;;;11.00;5.22;;;17.50;63.30;;;;;;5072406;28;20017;-77
2021/10/28 16:57:00;;;;;;;8.63;4.70;;;17.30;63.50;;;;;;5073289;28;20021;-77
2021/10/28 16:59:26;;;;;;;10.65;4.80;;;17.30;64.00;;;;;;5073421;28;20058;-76
2021/10/28 17:01:53;;;;;;;10.15;4.75;;;17.20;64.20;;;;;;5076213;28;20113;-76
2021/10/28 17:04:19;;;;;;;8.43;4.60;;;17.00;64.80;;;;;;5077327;28;20028;-77
2021/10/28 17:06:46;;;;;;;11.05;5.88;;;17.00;65.30;;;;;;5077064;28;20032;-77
2021/10/28 17:09:11;;;;;;;12.82;4.80;;;16.90;65.70;;;;;;5075670;28;20027;-77
2021/10/28 17:11:39;;;;;;;8.57;4.63;;;16.80;66.00;;;;;;5077291;28;20361;-77
2021/10/28 17:14:06;;;;;;;10.20;5.57;;;16.70;66.30;;;;;;5077167;28;20027;-76
2021/10/28 17:16:33;;;;;;;8.10;4.38;;;16.60;66.70;;;;;;5076929;28;20051;-77
2021/10/28 17:19:00;;;;;;;10.43;5.18;;;16.60;66.90;;;;;;5076823;28;20055;-77
2021/10/28 17:21:26;;;;;;;8.38;5.15;;;16.40;67.50;;;;;;5075888;28;20082;-76
2021/10/28 17:24:02;;;;;;;10.35;5.40;;;16.40;67.90;;;;;;5058973;28;20028;-76
2021/10/28 17:26:32;;;;;;;8.60;4.80;;;16.30;68.30;;;;;;5076034;28;20024;-77
2021/10/28 17:29:01;;;;;;;9.27;5.05;;;16.30;68.40;;;;;;5058821;28;20035;-80
2021/10/28 17:31:32;;;;;;;8.45;5.28;;;16.20;68.70;;;;;;5071664;28;20024;-79
2021/10/28 17:33:59;;;;;;;11.65;5.53;;;16.10;68.90;;;;;;5071307;28;20025;-78
2021/10/28 17:36:26;;;;;;;10.13;5.10;;;16.10;69.30;;;;;;5067789;28;20040;-78
2021/10/28 17:38:52;;;;;;;9.80;5.55;;;16.00;69.60;;;;;;5075036;28;20499;-80
2021/10/28 17:41:19;;;;;;;9.73;5.10;;;15.90;69.70;;;;;;5058223;28;20433;-79
2021/10/28 17:43:50;;;;;;;10.27;5.95;;;15.90;70.00;;;;;;5060994;28;20417;-79
2021/10/28 17:46:16;;;;;;;10.50;5.63;;;15.80;70.30;;;;;;5055122;28;20074;-80
2021/10/28 17:48:41;;;;;;;11.88;6.18;;;15.70;70.50;;;;;;5070898;28;20447;-78
2021/10/28 17:51:08;;;;;;;11.27;6.05;;;15.60;70.70;;;;;;5041691;28;20021;-80
2021/10/28 17:53:33;;;;;;;11.00;5.53;;;15.60;71.10;;;;;;5070322;28;20072;-80
2021/10/28 17:55:59;;;;;;;10.27;5.28;;;15.50;71.50;;;;;;5073449;28;20029;-81
2021/10/28 17:58:25;;;;;;;12.93;5.97;;;15.50;71.80;;;;;;5074374;28;20036;-79
2021/10/28 18:00:51;;;;;;;11.95;6.38;;;15.40;72.00;;;;;;5064209;28;20029;-80
2021/10/28 18:03:20;;;;;;;12.50;7.32;;;15.40;72.50;;;;;;5056245;28;20362;-80
2021/10/28 18:05:46;;;;;;;11.88;6.07;;;15.30;72.90;;;;;;5064361;28;20625;-79
2021/10/28 18:08:14;;;;;;;13.52;6.38;;;15.30;73.20;;;;;;5064821;28;20050;-79
2021/10/28 18:10:40;;;;;;;12.65;6.63;;;15.20;73.40;;;;;;5066948;28;20434;-80
2021/10/28 18:13:07;;;;;;;11.50;6.50;;;15.10;73.50;;;;;;5049440;28;20025;-80
2021/10/28 18:15:33;;;;;;;13.98;6.75;;;15.10;73.70;;;;;;5060721;28;20054;-79
2021/10/28 18:17:59;;;;;;;12.88;6.78;;;15.00;74.00;;;;;;5067296;28;20057;-79
2021/10/28 18:20:25;;;;;;;13.32;7.25;;;15.00;74.10;;;;;;5067734;28;20052;-79
2021/10/28 18:22:52;;;;;;;13.43;7.68;;;14.90;74.60;;;;;;5063963;28;20016;-79
2021/10/28 18:25:18;;;;;;;11.52;6.43;;;14.90;74.60;;;;;;5049780;28;20480;-79
2021/10/28 18:27:44;;;;;;;11.15;7.20;;;14.80;74.80;;;;;;5039609;28;20032;-78
2021/10/28 18:30:16;;;;;;;13.55;7.07;;;14.80;75.10;;;;;;5071324;28;20528;-79
2021/10/28 18:32:43;;;;;;;15.35;8.13;;;14.70;75.30;;;;;;5077699;28;20017;-78
2021/10/28 18:35:11;;;;;;;11.60;6.90;;;14.60;75.50;;;;;;5083212;28;20016;-78
2021/10/28 18:37:37;;;;;;;10.52;6.55;;;14.60;75.70;;;;;;5063773;28;20047;-79
2021/10/28 18:40:03;;;;;;;15.48;7.63;;;14.60;75.90;;;;;;5069192;28;20021;-78
2021/10/28 18:42:29;;;;;;;13.43;7.47;;;14.50;76.10;;;;;;5071097;28;20029;-79
2021/10/28 18:44:55;;;;;;;11.55;6.43;;;14.50;76.40;;;;;;5060402;28;20025;-79
2021/10/28 18:47:20;;;;;;;10.98;7.32;;;14.50;76.50;;;;;;5075362;28;20029;-79
2021/10/28 18:49:49;;;;;;;11.63;6.82;;;14.40;76.70;;;;;;5072918;28;20021;-79
2021/10/28 18:52:18;;;;;;;14.10;6.93;;;14.30;76.80;;;;;;5075071;28;20100;-79
2021/10/28 18:54:45;;;;;;;13.48;7.95;;;14.30;77.10;;;;;;5056876;28;20480;-78
2021/10/28 18:57:13;;;;;;;12.38;7.50;;;14.30;77.40;;;;;;5073573;28;20481;-79
2021/10/28 18:59:40;;;;;;;13.23;6.93;;;14.20;77.40;;;;;;5073678;28;20021;-79
2021/10/28 19:02:07;;;;;;;12.98;6.43;;;14.20;77.60;;;;;;5066978;28;20028;-80
2021/10/28 19:04:34;;;;;;;14.10;7.30;;;14.10;77.60;;;;;;5073494;28;20021;-78
2021/10/28 19:07:00;;;;;;;13.80;7.65;;;14.10;78.00;;;;;;5053279;28;20041;-78
2021/10/28 19:09:26;;;;;;;10.00;6.50;;;14.10;78.20;;;;;;5060778;28;20044;-79
2021/10/28 19:11:51;;;;;;;13.05;7.30;;;14.00;78.40;;;;;;5056682;28;20380;-79
2021/10/28 19:14:17;;;;;;;11.00;6.78;;;14.00;78.70;;;;;;5056881;28;20028;-78
2021/10/28 19:16:43;;;;;;;15.63;7.85;;;14.00;78.70;;;;;;5065494;28;20033;-80
2021/10/28 19:19:09;;;;;;;12.20;7.32;;;14.00;78.90;;;;;;5056621;28;20059;-79
2021/10/28 19:21:35;;;;;;;13.95;7.22;;;13.90;78.80;;;;;;5074325;28;20024;-78
2021/10/28 19:24:01;;;;;;;11.10;7.03;;;13.90;79.00;;;;;;5063840;28;20026;-78
2021/10/28 19:26:27;;;;;;;11.23;6.60;;;13.90;79.20;;;;;;5054253;28;20416;-79
2021/10/28 19:28:53;;;;;;;14.10;7.35;;;13.90;79.40;;;;;;5052916;28;20432;-78
2021/10/28 19:31:28;;;;;;;13.65;6.90;;;13.80;79.50;;;;;;5073225;28;20077;-78
2021/10/28 19:33:57;;;;;;;12.73;7.30;;;13.90;79.60;;;;;;5069020;28;20424;-78
2021/10/28 19:42:04;;;;;;;13.32;7.07;;;13.70;79.80;;;;;;5073445;28;20043;-78
2021/10/28 19:47:14;;;;;;;14.18;8.32;;;13.60;80.20;;;;;;5059199;28;20044;-78
2021/10/28 19:49:45;;;;;;;15.88;7.70;;;13.60;80.40;;;;;;5052525;28;20074;-78
2021/10/28 19:52:13;;;;;;;14.88;8.43;;;13.60;80.50;;;;;;5056169;28;20025;-78
2021/10/28 19:54:40;;;;;;;11.65;6.82;;;13.60;80.60;;;;;;5072652;28;20025;-78
2021/10/28 19:57:12;;;;;;;13.15;7.22;;;13.50;80.80;;;;;;5056011;28;20114;-78
2021/10/28 19:59:44;;;;;;;12.73;7.95;;;13.50;81.10;;;;;;5072470;28;20024;-78
2021/10/28 20:02:16;;;;;;;13.45;8.05;;;13.50;81.20;;;;;;5053332;28;20048;-78
2021/10/28 20:21:14;;;;;;;15.18;8.60;;;13.20;81.70;;;;;;5055609;28;20038;-77
2021/10/28 20:23:40;;;;;;;17.35;8.60;;;13.10;81.80;;;;;;5071910;28;20109;-77
2021/10/28 20:26:06;;;;;;;14.65;9.40;;;13.10;82.50;;;;;;5053722;28;20043;-77
2021/10/28 20:28:39;;;;;;;16.30;9.40;;;13.10;82.30;;;;;;5072822;28;20039;-77
2021/10/28 20:31:06;;;;;;;16.48;8.73;;;13.00;82.30;;;;;;5072232;28;20032;-76
2021/10/28 20:33:36;;;;;;;14.13;8.55;;;13.00;82.50;;;;;;5054578;28;20035;-76
2021/10/28 20:38:33;;;;;;;15.23;10.10;;;13.00;82.90;;;;;;5073279;28;20473;-77
2021/10/28 20:40:59;;;;;;;16.67;8.85;;;12.90;82.90;;;;;;5071179;28;20437;-77
2021/10/28 20:43:25;;;;;;;18.58;10.27;;;12.90;82.90;;;;;;5072628;28;20067;-77
2021/10/28 20:45:51;;;;;;;16.30;9.60;;;12.90;83.10;;;;;;5071307;28;20095;-77
2021/10/28 20:48:17;;;;;;;17.42;10.15;;;12.80;83.30;;;;;;5071190;28;20464;-77
2021/10/28 20:50:42;;;;;;;15.05;9.40;;;12.80;83.40;;;;;;5071353;28;20713;-77
2021/10/28 20:53:08;;;;;;;17.42;9.02;;;12.70;83.30;;;;;;5071409;28;20465;-76
2021/10/28 20:55:34;;;;;;;14.98;9.35;;;12.80;83.40;;;;;;5071186;28;20039;-77
2021/10/28 20:58:00;;;;;;;16.40;9.05;;;12.70;83.40;;;;;;5071703;28;20029;-77
2021/10/28 21:00:26;;;;;;;16.25;9.75;;;12.60;83.50;;;;;;5072740;28;20040;-77
2021/10/28 21:02:52;;;;;;;16.25;9.40;;;12.60;83.70;;;;;;5054670;28;20396;-77
2021/10/28 21:05:21;;;;;;;15.90;9.48;;;12.50;84.30;;;;;;5049236;28;20065;-77
2021/10/28 21:07:50;;;;;;;20.17;10.10;;;12.50;83.90;;;;;;5068151;28;20032;-79
2021/10/28 21:10:18;;;;;;;16.00;9.83;;;12.50;83.90;;;;;;5051199;28;20029;-78
2021/10/28 21:12:47;;;;;;;17.17;10.90;;;12.50;84.10;;;;;;5051621;28;20115;-78
2021/10/28 21:15:13;;;;;;;18.00;9.82;;;12.50;84.20;;;;;;5051561;28;20029;-78
2021/10/28 21:17:39;;;;;;;16.53;10.27;;;12.40;84.30;;;;;;5035093;28;20037;-78
2021/10/28 21:20:06;;;;;;;18.47;11.37;;;12.40;84.40;;;;;;5061388;28;20053;-76
2021/10/28 21:22:33;;;;;;;18.98;10.40;;;12.30;84.60;;;;;;5051953;28;20025;-77
2021/10/28 21:24:58;;;;;;;20.90;12.15;;;12.30;84.70;;;;;;5051455;28;20021;-77
2021/10/28 21:27:24;;;;;;;17.90;11.73;;;12.30;84.70;;;;;;5018900;28;20199;-76
2021/10/28 21:29:50;;;;;;;17.55;11.40;;;12.20;84.80;;;;;;5051660;28;20056;-77
2021/10/28 21:32:15;;;;;;;19.43;11.77;;;12.20;84.80;;;;;;5035555;28;20033;-78
2021/10/28 21:34:44;;;;;;;21.23;12.15;;;12.20;84.90;;;;;;5052038;28;20108;-76
2021/10/28 21:37:11;;;;;;;18.13;11.83;;;12.10;85.00;;;;;;5052099;28;20040;-76
2021/10/28 21:39:41;;;;;;;21.30;12.90;;;12.10;85.10;;;;;;5053232;28;20033;-77
2021/10/28 21:42:08;;;;;;;18.73;11.60;;;12.10;85.30;;;;;;5035427;28;20055;-77
2021/10/28 21:44:35;;;;;;;20.30;12.80;;;12.00;85.30;;;;;;5051491;28;20032;-77
2021/10/28 21:47:01;;;;;;;19.80;12.27;;;12.00;85.30;;;;;;5053075;28;20116;-77
2021/10/28 21:49:26;;;;;;;18.20;12.60;;;11.90;86.10;;;;;;5038699;28;20108;-78